Tessa Pg — MJBU6 — position and weather

sailwx.info

Track history (hours):
 
Tides and Currents Weather Stations Pressure Air Temp Water Temp Dewpoint Dewpoint Depression Visibility Wind Speed Wind Dir Waves Ship Positions

Tessa Pg

Last reported at 2018-Jan-21 19:30 UTC. Time now 2018-Jan-22 12:41 UTC.
Position N 17°55' W 062°53'.

Length 122 m; draft 5.7 m.

Type: Tanker. MMSI: 235009020.

Date/timePositionNaut miles runAvg speedWind from/ knotsBaromVisibWave heightAir tempDewpointWater temp
2018-Jan-21 19:30N 17°55' W 062°53'0 0.0
2018-Jan-21 18:48N 17°55' W 062°53'0 0.0
2018-Jan-21 18:30N 17°55' W 062°53'0 0.0
2018-Jan-21 18:00N 17°55' W 062°53'1 0.3
2018-Jan-21 15:00N 17°54' W 062°54'510.9
2018-Jan-21 14:30N 17°49' W 062°56'510.9
2018-Jan-21 14:00N 17°45' W 062°59'710.7
2018-Jan-21 13:22N 17°39' W 063°03'410.8
2018-Jan-21 12:58N 17°35' W 063°05'611.4
2018-Jan-21 12:25N 17°29' W 063°05'2511.6
2018-Jan-21 10:14N 17°06' W 062°53'4 3.4
2018-Jan-21 09:10N 17°03' W 062°51'210.9
2018-Jan-21 08:59N 17°04' W 062°52'2710.2
2018-Jan-21 06:18N 16°42' W 062°37'311.4
2018-Jan-21 06:00N 16°39' W 062°35'611.6
2018-Jan-21 05:30N 16°34' W 062°31'611.5
2018-Jan-21 05:00N 16°29' W 062°28'611.4
2018-Jan-21 04:29N 16°24' W 062°25'511.3
2018-Jan-21 04:00N 16°20' W 062°22'7211.5
2018-Jan-20 21:46N 15°19' W 061°41'49 8.5
2018-Jan-20 16:03N 14°38' W 061°14'112.0
2018-Jan-20 16:00N 14°38' W 061°13'712.2
2018-Jan-20 15:25N 14°35' W 061°07'1 0.2
2018-Jan-20 08:40N 14°34' W 061°06'0 0.0
2018-Jan-20 07:13N 14°34' W 061°06'0 0.1
2018-Jan-20 06:58N 14°34' W 061°06'0 0.0
2018-Jan-20 06:25N 14°34' W 061°06'0 0.0
2018-Jan-20 05:58N 14°34' W 061°06'0 0.0
2018-Jan-20 05:25N 14°34' W 061°06'0 0.0
2018-Jan-20 04:55N 14°34' W 061°06'0 0.0
2018-Jan-20 04:28N 14°34' W 061°06'0 0.0
2018-Jan-20 03:34N 14°34' W 061°06'0 0.1
2018-Jan-20 03:22N 14°34' W 061°06'0 0.0
2018-Jan-20 02:58N 14°34' W 061°06'0 0.0
2018-Jan-20 02:25N 14°34' W 061°06'0 0.0
2018-Jan-20 01:58N 14°34' W 061°06'0 0.0
2018-Jan-20 00:19N 14°34' W 061°06'0 0.0
2018-Jan-19 22:34N 14°34' W 061°06'0 0.0
2018-Jan-19 20:37N 14°34' W 061°06'0 0.0
2018-Jan-19 20:10N 14°34' W 061°06'0 0.0
2018-Jan-19 19:52N 14°34' W 061°06'0 0.0
2018-Jan-19 19:25N 14°34' W 061°06'0 0.0
2018-Jan-19 18:55N 14°34' W 061°06'0 0.0
2018-Jan-19 16:43N 14°34' W 061°06'0 0.0
2018-Jan-19 15:07N 14°34' W 061°06'0 0.0
2018-Jan-19 13:49N 14°34' W 061°06'0 0.0
2018-Jan-19 13:16N 14°34' W 061°06'0 0.0
2018-Jan-19 12:13N 14°34' W 061°06'0 0.0
2018-Jan-19 11:58N 14°34' W 061°06'0 0.0
2018-Jan-19 11:22N 14°34' W 061°06'0 0.0
2018-Jan-19 10:58N 14°34' W 061°06'0 0.0
2018-Jan-19 10:28N 14°34' W 061°06'0 0.0
2018-Jan-19 07:46N 14°34' W 061°06'0 0.0
2018-Jan-19 07:28N 14°34' W 061°06'0 0.0
2018-Jan-19 05:52N 14°34' W 061°06'0 0.1
2018-Jan-19 05:19N 14°34' W 061°06'0 0.1
2018-Jan-19 04:55N 14°34' W 061°06'0 0.0
2018-Jan-19 04:22N 14°34' W 061°06'0 0.1
2018-Jan-19 03:55N 14°34' W 061°06'0 0.0
2018-Jan-19 03:28N 14°34' W 061°06'0 0.0
2018-Jan-19 02:55N 14°34' W 061°06'0 0.0
2018-Jan-19 02:25N 14°34' W 061°06'0 0.0
2018-Jan-19 01:58N 14°34' W 061°06'0 0.0
2018-Jan-19 01:28N 14°34' W 061°06'0 0.0
2018-Jan-19 00:58N 14°34' W 061°06'0 0.0
2018-Jan-19 00:22N 14°34' W 061°06'0 0.0
2018-Jan-18 23:55N 14°34' W 061°06'0 0.0
2018-Jan-18 23:28N 14°34' W 061°06'0 0.0
2018-Jan-18 22:58N 14°34' W 061°06'0 0.0
2018-Jan-18 22:25N 14°34' W 061°06'0 0.0
2018-Jan-18 19:16N 14°34' W 061°06'0 0.0
2018-Jan-18 18:58N 14°34' W 061°06'0 0.0
2018-Jan-18 18:04N 14°34' W 061°06'0 0.3
2018-Jan-18 17:58N 14°34' W 061°06'0 0.0
2018-Jan-18 17:28N 14°34' W 061°06'0 0.0
2018-Jan-18 16:49N 14°34' W 061°06'0 0.1
2018-Jan-18 16:25N 14°34' W 061°06'0 0.1
2018-Jan-18 15:58N 14°34' W 061°06'0 0.1
2018-Jan-18 15:13N 14°34' W 061°06'0 0.0
2018-Jan-18 14:22N 14°34' W 061°06'0 0.0
2018-Jan-18 13:58N 14°34' W 061°06'0 0.0
2018-Jan-18 13:25N 14°34' W 061°06'0 0.0
2018-Jan-18 12:58N 14°34' W 061°06'0 0.0
2018-Jan-18 12:25N 14°34' W 061°06'0 0.0
2018-Jan-18 11:46N 14°34' W 061°06'0 0.0
2018-Jan-18 11:28N 14°34' W 061°06'0 0.0
2018-Jan-18 10:58N 14°34' W 061°06'0 0.0
2018-Jan-18 10:28N 14°34' W 061°06'0 0.0
2018-Jan-18 09:55N 14°34' W 061°06'0 0.0
2018-Jan-18 07:10N 14°34' W 061°06'0 0.2
2018-Jan-18 06:58N 14°34' W 061°06'0 0.0
2018-Jan-18 06:19N 14°34' W 061°06'0 0.0
2018-Jan-18 05:58N 14°34' W 061°06'0 0.1
2018-Jan-18 05:25N 14°34' W 061°06'0 0.0
2018-Jan-18 04:58N 14°34' W 061°06'0 0.1
2018-Jan-18 04:25N 14°34' W 061°06'0 0.0
2018-Jan-18 03:58N 14°34' W 061°06'0 0.0
2018-Jan-18 03:28N 14°34' W 061°06'0 0.0
2018-Jan-18 02:58N 14°34' W 061°06'0 0.0
2018-Jan-18 02:28N 14°34' W 061°06'0 0.1
2018-Jan-18 01:58N 14°34' W 061°06'0 0.0
2018-Jan-18 01:22N 14°34' W 061°06'0 0.0
2018-Jan-18 00:55N 14°34' W 061°06'  
2018-Jan-12 12:43N 14°36' W 061°04'1 1.6
2018-Jan-12 12:14N 14°35' W 061°04'1 3.6
2018-Jan-12 11:59N 14°35' W 061°05'  
Track history (hours):
 
Tides and Currents Weather Stations Pressure Air Temp Water Temp Dewpoint Dewpoint Depression Visibility Wind Speed Wind Dir Waves Ship Positions

Tessa Pg

Last reported at 2018-Jan-21 19:30 UTC. Time now 2018-Jan-22 12:41 UTC.
Position N 17°55' W 062°53'.

Length 122 m; draft 5.7 m.

Type: Tanker. MMSI: 235009020.

Date/timePositionNaut miles runAvg speedWind from/ knotsBaromVisibWave heightAir tempDewpointWater temp
2018-Jan-21 19:30N 17°55' W 062°53'0 0.0
2018-Jan-21 18:48N 17°55' W 062°53'0 0.0
2018-Jan-21 18:30N 17°55' W 062°53'0 0.0
2018-Jan-21 18:00N 17°55' W 062°53'1 0.3
2018-Jan-21 15:00N 17°54' W 062°54'510.9
2018-Jan-21 14:30N 17°49' W 062°56'510.9
2018-Jan-21 14:00N 17°45' W 062°59'710.7
2018-Jan-21 13:22N 17°39' W 063°03'410.8
2018-Jan-21 12:58N 17°35' W 063°05'611.4
2018-Jan-21 12:25N 17°29' W 063°05'2511.6
2018-Jan-21 10:14N 17°06' W 062°53'4 3.4
2018-Jan-21 09:10N 17°03' W 062°51'210.9
2018-Jan-21 08:59N 17°04' W 062°52'2710.2
2018-Jan-21 06:18N 16°42' W 062°37'311.4
2018-Jan-21 06:00N 16°39' W 062°35'611.6
2018-Jan-21 05:30N 16°34' W 062°31'611.5
2018-Jan-21 05:00N 16°29' W 062°28'611.4
2018-Jan-21 04:29N 16°24' W 062°25'511.3
2018-Jan-21 04:00N 16°20' W 062°22'7211.5
2018-Jan-20 21:46N 15°19' W 061°41'49 8.5
2018-Jan-20 16:03N 14°38' W 061°14'112.0
2018-Jan-20 16:00N 14°38' W 061°13'712.2
2018-Jan-20 15:25N 14°35' W 061°07'1 0.2
2018-Jan-20 08:40N 14°34' W 061°06'0 0.0
2018-Jan-20 07:13N 14°34' W 061°06'0 0.1
2018-Jan-20 06:58N 14°34' W 061°06'0 0.0
2018-Jan-20 06:25N 14°34' W 061°06'0 0.0
2018-Jan-20 05:58N 14°34' W 061°06'0 0.0
2018-Jan-20 05:25N 14°34' W 061°06'0 0.0
2018-Jan-20 04:55N 14°34' W 061°06'0 0.0
2018-Jan-20 04:28N 14°34' W 061°06'0 0.0
2018-Jan-20 03:34N 14°34' W 061°06'0 0.1
2018-Jan-20 03:22N 14°34' W 061°06'0 0.0
2018-Jan-20 02:58N 14°34' W 061°06'0 0.0
2018-Jan-20 02:25N 14°34' W 061°06'0 0.0
2018-Jan-20 01:58N 14°34' W 061°06'0 0.0
2018-Jan-20 00:19N 14°34' W 061°06'0 0.0
2018-Jan-19 22:34N 14°34' W 061°06'0 0.0
2018-Jan-19 20:37N 14°34' W 061°06'0 0.0
2018-Jan-19 20:10N 14°34' W 061°06'0 0.0
2018-Jan-19 19:52N 14°34' W 061°06'0 0.0
2018-Jan-19 19:25N 14°34' W 061°06'0 0.0
2018-Jan-19 18:55N 14°34' W 061°06'0 0.0
2018-Jan-19 16:43N 14°34' W 061°06'0 0.0
2018-Jan-19 15:07N 14°34' W 061°06'0 0.0
2018-Jan-19 13:49N 14°34' W 061°06'0 0.0
2018-Jan-19 13:16N 14°34' W 061°06'0 0.0
2018-Jan-19 12:13N 14°34' W 061°06'0 0.0
2018-Jan-19 11:58N 14°34' W 061°06'0 0.0
2018-Jan-19 11:22N 14°34' W 061°06'0 0.0
2018-Jan-19 10:58N 14°34' W 061°06'0 0.0
2018-Jan-19 10:28N 14°34' W 061°06'0 0.0
2018-Jan-19 07:46N 14°34' W 061°06'0 0.0
2018-Jan-19 07:28N 14°34' W 061°06'0 0.0
2018-Jan-19 05:52N 14°34' W 061°06'0 0.1
2018-Jan-19 05:19N 14°34' W 061°06'0 0.1
2018-Jan-19 04:55N 14°34' W 061°06'0 0.0
2018-Jan-19 04:22N 14°34' W 061°06'0 0.1
2018-Jan-19 03:55N 14°34' W 061°06'0 0.0
2018-Jan-19 03:28N 14°34' W 061°06'0 0.0
2018-Jan-19 02:55N 14°34' W 061°06'0 0.0
2018-Jan-19 02:25N 14°34' W 061°06'0 0.0
2018-Jan-19 01:58N 14°34' W 061°06'0 0.0
2018-Jan-19 01:28N 14°34' W 061°06'0 0.0
2018-Jan-19 00:58N 14°34' W 061°06'0 0.0
2018-Jan-19 00:22N 14°34' W 061°06'0 0.0
2018-Jan-18 23:55N 14°34' W 061°06'0 0.0
2018-Jan-18 23:28N 14°34' W 061°06'0 0.0
2018-Jan-18 22:58N 14°34' W 061°06'0 0.0
2018-Jan-18 22:25N 14°34' W 061°06'0 0.0
2018-Jan-18 19:16N 14°34' W 061°06'0 0.0
2018-Jan-18 18:58N 14°34' W 061°06'0 0.0
2018-Jan-18 18:04N 14°34' W 061°06'0 0.3
2018-Jan-18 17:58N 14°34' W 061°06'0 0.0
2018-Jan-18 17:28N 14°34' W 061°06'0 0.0
2018-Jan-18 16:49N 14°34' W 061°06'0 0.1
2018-Jan-18 16:25N 14°34' W 061°06'0 0.1
2018-Jan-18 15:58N 14°34' W 061°06'0 0.1
2018-Jan-18 15:13N 14°34' W 061°06'0 0.0
2018-Jan-18 14:22N 14°34' W 061°06'0 0.0
2018-Jan-18 13:58N 14°34' W 061°06'0 0.0
2018-Jan-18 13:25N 14°34' W 061°06'0 0.0
2018-Jan-18 12:58N 14°34' W 061°06'0 0.0
2018-Jan-18 12:25N 14°34' W 061°06'0 0.0
2018-Jan-18 11:46N 14°34' W 061°06'0 0.0
2018-Jan-18 11:28N 14°34' W 061°06'0 0.0
2018-Jan-18 10:58N 14°34' W 061°06'0 0.0
2018-Jan-18 10:28N 14°34' W 061°06'0 0.0
2018-Jan-18 09:55N 14°34' W 061°06'0 0.0
2018-Jan-18 07:10N 14°34' W 061°06'0 0.2
2018-Jan-18 06:58N 14°34' W 061°06'0 0.0
2018-Jan-18 06:19N 14°34' W 061°06'0 0.0
2018-Jan-18 05:58N 14°34' W 061°06'0 0.1
2018-Jan-18 05:25N 14°34' W 061°06'0 0.0
2018-Jan-18 04:58N 14°34' W 061°06'0 0.1
2018-Jan-18 04:25N 14°34' W 061°06'0 0.0
2018-Jan-18 03:58N 14°34' W 061°06'0 0.0
2018-Jan-18 03:28N 14°34' W 061°06'0 0.0
2018-Jan-18 02:58N 14°34' W 061°06'0 0.0
2018-Jan-18 02:28N 14°34' W 061°06'0 0.1
2018-Jan-18 01:58N 14°34' W 061°06'0 0.0
2018-Jan-18 01:22N 14°34' W 061°06'0 0.0
2018-Jan-18 00:55N 14°34' W 061°06'  
2018-Jan-12 12:43N 14°36' W 061°04'1 1.6
2018-Jan-12 12:14N 14°35' W 061°04'1 3.6
2018-Jan-12 11:59N 14°35' W 061°05'  

Dump ship's entire track history